createdAt,value
2022-08-17T00:01:52.643Z,30.50
2022-08-17T00:08:42.169Z,30.57
2022-08-17T00:16:18.407Z,30.58
2022-08-17T00:23:17.602Z,30.52
2022-08-17T00:30:03.260Z,30.51
2022-08-17T00:36:48.770Z,30.47
2022-08-17T00:43:41.134Z,30.35
2022-08-17T00:50:26.736Z,30.22
2022-08-17T00:57:16.537Z,29.92
2022-08-17T01:04:06.318Z,29.79
2022-08-17T01:10:58.522Z,29.57
2022-08-17T01:17:50.064Z,29.54
2022-08-17T01:24:39.743Z,28.86
2022-08-17T01:31:27.693Z,29.31
2022-08-17T01:38:13.214Z,29.30
2022-08-17T01:45:11.833Z,29.23
2022-08-17T01:51:57.380Z,28.91
2022-08-17T01:58:45.737Z,28.83
2022-08-17T02:05:39.268Z,28.65
2022-08-17T02:12:39.206Z,28.56
2022-08-17T02:19:25.606Z,28.44
2022-08-17T02:26:24.104Z,28.35
2022-08-17T02:33:12.302Z,28.35
2022-08-17T02:39:59.599Z,27.96
2022-08-17T03:00:42.946Z,27.93
2022-08-17T03:07:28.423Z,27.85
2022-08-17T03:14:13.991Z,27.77
2022-08-17T03:21:04.534Z,27.67
2022-08-17T03:27:50.286Z,27.17
2022-08-17T03:34:37.034Z,27.55
2022-08-17T03:41:25.209Z,27.53
2022-08-17T03:48:23.183Z,27.51
2022-08-17T03:55:22.327Z,27.51
2022-08-17T04:02:28.065Z,27.28
2022-08-17T04:09:14.529Z,27.46
2022-08-17T04:16:00.164Z,27.46
2022-08-17T04:23:03.139Z,27.39
2022-08-17T04:29:54.710Z,27.30
2022-08-17T04:36:41.297Z,27.32
2022-08-17T04:43:40.757Z,27.40
2022-08-17T04:50:26.229Z,27.35
2022-08-17T04:57:11.750Z,27.26
2022-08-17T05:04:32.875Z,27.20
2022-08-17T05:11:10.243Z,26.77
2022-08-17T05:17:56.337Z,26.82
2022-08-17T05:24:53.577Z,26.41
2022-08-17T05:31:40.009Z,25.84
2022-08-17T05:38:29.908Z,25.88
2022-08-17T05:45:32.136Z,26.06
2022-08-17T05:52:36.542Z,25.81
2022-08-17T05:59:44.110Z,26.24
2022-08-17T06:06:45.048Z,26.08
2022-08-17T06:13:51.948Z,25.94
2022-08-17T06:20:50.386Z,25.81
2022-08-17T06:27:43.617Z,25.81
2022-08-17T06:34:29.908Z,25.76
2022-08-17T06:41:24.228Z,25.74
2022-08-17T06:48:24.870Z,25.75
2022-08-17T06:55:17.737Z,26.22
2022-08-17T07:02:08.461Z,25.76
2022-08-17T07:09:05.403Z,26.74
2022-08-17T07:15:56.940Z,27.00
2022-08-17T07:22:59.734Z,27.16
2022-08-17T07:29:54.408Z,27.02
2022-08-17T07:36:39.890Z,27.50
2022-08-17T07:43:29.647Z,27.59
2022-08-17T07:50:33.245Z,27.70
2022-08-17T07:57:37.583Z,27.77
2022-08-17T08:05:00.149Z,27.75
2022-08-17T08:11:44.473Z,27.85
2022-08-17T08:18:38.567Z,27.87
2022-08-17T08:25:53.620Z,27.90
2022-08-17T08:33:07.739Z,27.97
2022-08-17T08:40:07.531Z,27.49
2022-08-17T08:47:04.464Z,28.01
2022-08-17T08:54:04.927Z,28.05
2022-08-17T09:00:56.593Z,28.11
2022-08-17T09:07:57.757Z,28.18
2022-08-17T09:14:54.883Z,28.27
2022-08-17T09:21:49.250Z,28.35
2022-08-17T09:28:39.600Z,28.39
2022-08-17T09:35:37.065Z,28.48
2022-08-17T09:42:29.924Z,28.55
2022-08-17T09:49:28.101Z,28.08
2022-08-17T09:56:43.787Z,28.56
2022-08-17T10:03:54.494Z,28.66
2022-08-17T10:10:56.302Z,28.77
2022-08-17T10:17:56.568Z,28.88
2022-08-17T10:25:21.344Z,28.98
2022-08-17T10:32:11.684Z,29.09
2022-08-17T10:39:12.564Z,29.14
2022-08-17T10:46:30.441Z,29.05
2022-08-17T10:53:57.538Z,29.15
2022-08-17T11:01:12.955Z,29.24
2022-08-17T11:08:32.082Z,29.18
2022-08-17T11:15:31.789Z,29.14
2022-08-17T11:23:00.962Z,29.12
2022-08-17T11:30:01.562Z,29.09
2022-08-17T11:37:29.239Z,29.09
2022-08-17T11:44:47.134Z,29.09
2022-08-17T11:52:13.080Z,29.14
2022-08-17T11:58:58.885Z,29.28
2022-08-17T12:05:47.005Z,29.34
2022-08-17T12:12:35.928Z,29.32
2022-08-17T12:19:27.550Z,29.40
2022-08-17T12:26:25.372Z,29.46
2022-08-17T12:33:25.750Z,29.48
2022-08-17T12:40:27.128Z,29.41
2022-08-17T12:47:22.786Z,29.46
2022-08-17T12:54:09.478Z,29.48
2022-08-17T13:01:04.709Z,29.48
2022-08-17T13:07:53.384Z,29.67
2022-08-17T13:14:38.931Z,29.67
2022-08-17T13:21:31.019Z,29.67
2022-08-17T13:28:32.450Z,29.82
2022-08-17T13:35:50.209Z,29.70
2022-08-17T13:42:52.141Z,30.23
2022-08-17T13:49:48.818Z,30.06
2022-08-17T13:56:47.785Z,30.48
2022-08-17T14:03:33.500Z,30.40
2022-08-17T14:10:21.957Z,30.81
2022-08-17T14:17:08.282Z,30.89
2022-08-17T14:23:54.926Z,30.94
2022-08-17T14:30:45.435Z,31.07
2022-08-17T14:37:34.539Z,30.68
2022-08-17T14:44:20.620Z,31.28
2022-08-17T14:51:09.620Z,31.32
2022-08-17T14:57:55.418Z,31.69
2022-08-17T15:04:45.558Z,31.27
2022-08-17T15:11:34.650Z,31.91
2022-08-17T15:18:21.315Z,32.03
2022-08-17T15:25:09.388Z,31.80
2022-08-17T15:32:00.552Z,32.25
2022-08-17T15:38:46.676Z,32.19
2022-08-17T15:45:33.578Z,32.23
2022-08-17T15:52:25.718Z,32.34
2022-08-17T15:59:11.427Z,32.50
2022-08-17T16:05:57.826Z,32.56
2022-08-17T16:12:51.264Z,32.51
2022-08-17T16:19:37.032Z,32.44
2022-08-17T16:26:22.949Z,32.43
2022-08-17T16:33:15.113Z,32.35
2022-08-17T16:40:01.483Z,32.27
2022-08-17T16:46:47.738Z,31.60
2022-08-17T16:53:35.860Z,32.07
2022-08-17T17:00:22.226Z,32.06
2022-08-17T17:07:41.917Z,31.87
2022-08-17T17:14:34.839Z,32.22
2022-08-17T17:21:28.986Z,32.13
2022-08-17T17:28:26.809Z,32.37
2022-08-17T17:35:20.817Z,32.51
2022-08-17T17:42:11.922Z,32.63
2022-08-17T17:48:57.397Z,32.63
2022-08-17T17:56:05.345Z,32.72
2022-08-17T18:03:16.471Z,32.87
2022-08-17T18:10:29.344Z,32.65
2022-08-17T18:17:18.729Z,32.98
2022-08-17T18:24:07.189Z,33.03
2022-08-17T18:31:13.000Z,33.06
2022-08-17T18:38:23.167Z,33.08
2022-08-17T18:45:09.966Z,33.10
2022-08-17T18:52:14.752Z,33.12
2022-08-17T18:59:25.840Z,33.18
2022-08-17T19:06:25.577Z,33.21
2022-08-17T19:13:23.819Z,33.15
2022-08-17T19:20:20.394Z,33.06
2022-08-17T19:27:16.108Z,32.95
2022-08-17T19:34:05.365Z,32.86
2022-08-17T19:41:08.693Z,32.77
2022-08-17T19:48:04.151Z,32.64
2022-08-17T19:54:57.532Z,32.52
2022-08-17T20:01:58.187Z,32.51
2022-08-17T20:09:00.302Z,32.45
2022-08-17T20:15:47.048Z,32.19
2022-08-17T20:22:52.157Z,32.44
2022-08-17T20:30:13.019Z,32.43
2022-08-17T20:37:04.601Z,31.99
2022-08-17T20:44:10.772Z,32.12
2022-08-17T20:51:03.369Z,31.98
2022-08-17T20:57:51.517Z,31.98
2022-08-17T21:05:17.459Z,31.65
2022-08-17T21:12:05.906Z,31.71
2022-08-17T21:19:02.517Z,31.58
2022-08-17T21:26:17.734Z,31.43
2022-08-17T21:33:24.950Z,31.27
2022-08-17T21:40:28.324Z,31.18
2022-08-17T21:47:27.809Z,31.13
2022-08-17T21:54:36.448Z,31.12
2022-08-17T22:01:29.495Z,31.18
2022-08-17T22:08:24.936Z,31.14
2022-08-17T22:15:11.872Z,30.99
2022-08-17T22:22:07.470Z,30.81
2022-08-17T22:28:57.928Z,30.72
2022-08-17T22:35:45.575Z,30.68
2022-08-17T22:42:31.430Z,30.60
2022-08-17T22:49:29.481Z,30.35
2022-08-17T22:56:33.275Z,30.53
2022-08-17T23:03:24.407Z,30.42
2022-08-17T23:10:13.099Z,30.20
2022-08-17T23:16:59.278Z,30.14
2022-08-17T23:23:44.829Z,30.13
2022-08-17T23:30:34.257Z,30.10
2022-08-17T23:37:21.406Z,30.17
2022-08-17T23:44:09.593Z,30.17
2022-08-17T23:50:58.376Z,30.16
2022-08-17T23:57:50.018Z,29.61
